sensor_id;sensor_type;location;lat;lon;timestamp;pressure;altitude;pressure_sealevel;temperature;humidity
49827;BME280;35715;51.570;6.036;2023-10-09T00:00:26;101899.34;;;15.15;95.34
49827;BME280;35715;51.570;6.036;2023-10-09T00:03:03;101895.88;;;15.15;95.26
49827;BME280;35715;51.570;6.036;2023-10-09T00:05:29;101896.75;;;15.15;95.62
49827;BME280;35715;51.570;6.036;2023-10-09T00:08:04;101903.06;;;15.19;95.73
49827;BME280;35715;51.570;6.036;2023-10-09T00:10:30;101885.75;;;15.19;95.73
49827;BME280;35715;51.570;6.036;2023-10-09T00:13:10;101881.66;;;15.23;96.13
49827;BME280;35715;51.570;6.036;2023-10-09T00:15:35;101880.06;;;15.25;96.18
49827;BME280;35715;51.570;6.036;2023-10-09T00:18:01;101877.47;;;15.25;95.94
49827;BME280;35715;51.570;6.036;2023-10-09T00:20:29;101868.66;;;15.23;95.89
49827;BME280;35715;51.570;6.036;2023-10-09T00:23:04;101875.47;;;15.21;95.75
49827;BME280;35715;51.570;6.036;2023-10-09T00:25:37;101870.97;;;15.18;95.98
49827;BME280;35715;51.570;6.036;2023-10-09T00:28:12;101872.66;;;15.18;96.37
49827;BME280;35715;51.570;6.036;2023-10-09T00:30:41;101873.34;;;15.15;96.56
49827;BME280;35715;51.570;6.036;2023-10-09T00:33:06;101872.47;;;15.15;96.58
49827;BME280;35715;51.570;6.036;2023-10-09T00:35:36;101866.38;;;15.14;96.85
49827;BME280;35715;51.570;6.036;2023-10-09T00:38:04;101860.25;;;15.14;97.20
49827;BME280;35715;51.570;6.036;2023-10-09T00:40:44;101842.06;;;15.14;96.86
49827;BME280;35715;51.570;6.036;2023-10-09T00:43:15;101848.97;;;15.13;96.98
49827;BME280;35715;51.570;6.036;2023-10-09T00:45:40;101848.09;;;15.13;97.36
49827;BME280;35715;51.570;6.036;2023-10-09T00:48:09;101842.88;;;15.13;97.61
49827;BME280;35715;51.570;6.036;2023-10-09T00:50:35;101838.56;;;15.13;97.92
49827;BME280;35715;51.570;6.036;2023-10-09T00:53:08;101830.88;;;15.15;98.04
49827;BME280;35715;51.570;6.036;2023-10-09T00:55:43;101838.09;;;15.19;98.77
49827;BME280;35715;51.570;6.036;2023-10-09T00:58:08;101846.06;;;15.22;99.03
49827;BME280;35715;51.570;6.036;2023-10-09T01:00:38;101837.66;;;15.26;99.23
49827;BME280;35715;51.570;6.036;2023-10-09T01:03:09;101841.56;;;15.33;99.36
49827;BME280;35715;51.570;6.036;2023-10-09T01:05:38;101849.66;;;15.37;98.90
49827;BME280;35715;51.570;6.036;2023-10-09T01:08:16;101854.38;;;15.43;99.15
49827;BME280;35715;51.570;6.036;2023-10-09T01:10:50;101839.75;;;15.45;98.80
49827;BME280;35715;51.570;6.036;2023-10-09T01:13:22;101839.06;;;15.48;99.35
49827;BME280;35715;51.570;6.036;2023-10-09T01:15:52;101837.44;;;15.50;99.04
49827;BME280;35715;51.570;6.036;2023-10-09T01:18:18;101838.41;;;15.52;98.94
49827;BME280;35715;51.570;6.036;2023-10-09T01:20:45;101842.84;;;15.53;98.79
49827;BME280;35715;51.570;6.036;2023-10-09T01:23:10;101841.94;;;15.52;98.79
49827;BME280;35715;51.570;6.036;2023-10-09T01:25:36;101845.44;;;15.53;98.84
49827;BME280;35715;51.570;6.036;2023-10-09T01:28:10;101846.22;;;15.52;98.91
49827;BME280;35715;51.570;6.036;2023-10-09T01:30:35;101842.75;;;15.51;99.29
49827;BME280;35715;51.570;6.036;2023-10-09T01:33:06;101841.94;;;15.52;99.12
49827;BME280;35715;51.570;6.036;2023-10-09T01:35:47;101845.44;;;15.53;99.55
49827;BME280;35715;51.570;6.036;2023-10-09T01:38:22;101853.34;;;15.54;99.25
49827;BME280;35715;51.570;6.036;2023-10-09T01:41:05;101845.63;;;15.56;99.41
49827;BME280;35715;51.570;6.036;2023-10-09T01:43:33;101830.94;;;15.56;99.12
49827;BME280;35715;51.570;6.036;2023-10-09T01:45:59;101829.31;;;15.58;99.11
49827;BME280;35715;51.570;6.036;2023-10-09T01:48:26;101838.00;;;15.59;99.18
49827;BME280;35715;51.570;6.036;2023-10-09T01:50:51;101826.81;;;15.60;99.21
49827;BME280;35715;51.570;6.036;2023-10-09T01:53:23;101827.00;;;15.63;98.95
49827;BME280;35715;51.570;6.036;2023-10-09T01:56:01;101834.91;;;15.65;98.99
49827;BME280;35715;51.570;6.036;2023-10-09T01:58:32;101830.69;;;15.67;99.57
49827;BME280;35715;51.570;6.036;2023-10-09T02:00:58;101829.09;;;15.69;100.00
49827;BME280;35715;51.570;6.036;2023-10-09T02:03:27;101844.81;;;15.70;99.58
49827;BME280;35715;51.570;6.036;2023-10-09T02:05:54;101833.59;;;15.71;99.78
49827;BME280;35715;51.570;6.036;2023-10-09T02:08:39;101838.09;;;15.74;99.80
49827;BME280;35715;51.570;6.036;2023-10-09T02:11:14;101832.97;;;15.75;99.97
49827;BME280;35715;51.570;6.036;2023-10-09T02:13:39;101829.72;;;15.78;99.22
49827;BME280;35715;51.570;6.036;2023-10-09T02:16:06;101824.59;;;15.79;99.54
49827;BME280;35715;51.570;6.036;2023-10-09T02:18:53;101833.38;;;15.82;99.38
49827;BME280;35715;51.570;6.036;2023-10-09T02:21:18;101838.59;;;15.82;99.25
49827;BME280;35715;51.570;6.036;2023-10-09T02:23:57;101821.41;;;15.84;99.34
49827;BME280;35715;51.570;6.036;2023-10-09T02:26:22;101819.78;;;15.86;99.00
49827;BME280;35715;51.570;6.036;2023-10-09T02:28:55;101824.19;;;15.87;99.11
49827;BME280;35715;51.570;6.036;2023-10-09T02:31:38;101812.06;;;15.87;98.98
49827;BME280;35715;51.570;6.036;2023-10-09T02:34:12;101826.78;;;15.87;99.60
49827;BME280;35715;51.570;6.036;2023-10-09T02:36:37;101815.56;;;15.88;99.75
49827;BME280;35715;51.570;6.036;2023-10-09T02:39:09;101812.25;;;15.90;99.23
49827;BME280;35715;51.570;6.036;2023-10-09T02:41:48;101799.25;;;15.90;99.14
49827;BME280;35715;51.570;6.036;2023-10-09T02:44:15;101813.31;;;15.94;99.00
49827;BME280;35715;51.570;6.036;2023-10-09T02:46:41;101799.41;;;15.93;98.79
49827;BME280;35715;51.570;6.036;2023-10-09T02:49:06;101797.72;;;15.94;98.96
49827;BME280;35715;51.570;6.036;2023-10-09T02:51:47;101797.81;;;15.95;98.77
49827;BME280;35715;51.570;6.036;2023-10-09T02:54:18;101803.94;;;15.96;98.81
49827;BME280;35715;51.570;6.036;2023-10-09T02:56:50;101790.91;;;15.96;98.56
49827;BME280;35715;51.570;6.036;2023-10-09T02:59:36;101785.88;;;15.99;98.77
49827;BME280;35715;51.570;6.036;2023-10-09T03:02:10;101778.97;;;16.00;98.39
49827;BME280;35715;51.570;6.036;2023-10-09T03:04:36;101777.25;;;16.00;98.46
49827;BME280;35715;51.570;6.036;2023-10-09T03:07:02;101773.06;;;16.02;98.25
49827;BME280;35715;51.570;6.036;2023-10-09T03:09:29;101770.38;;;16.01;98.64
49827;BME280;35715;51.570;6.036;2023-10-09T03:12:01;101775.66;;;16.02;98.35
49827;BME280;35715;51.570;6.036;2023-10-09T03:14:30;101779.25;;;16.04;98.20
49827;BME280;35715;51.570;6.036;2023-10-09T03:16:56;101774.84;;;16.03;98.06
49827;BME280;35715;51.570;6.036;2023-10-09T03:19:21;101780.88;;;16.02;98.24
49827;BME280;35715;51.570;6.036;2023-10-09T03:21:47;101773.84;;;16.01;98.18
49827;BME280;35715;51.570;6.036;2023-10-09T03:24:12;101770.28;;;15.99;98.21
49827;BME280;35715;51.570;6.036;2023-10-09T03:26:37;101767.66;;;15.99;98.44
49827;BME280;35715;51.570;6.036;2023-10-09T03:29:03;101763.34;;;16.00;98.31
49827;BME280;35715;51.570;6.036;2023-10-09T03:31:34;101765.06;;;15.99;98.15
49827;BME280;35715;51.570;6.036;2023-10-09T03:34:01;101767.66;;;15.99;97.97
49827;BME280;35715;51.570;6.036;2023-10-09T03:36:27;101758.06;;;15.98;98.29
49827;BME280;35715;51.570;6.036;2023-10-09T03:38:54;101769.34;;;15.99;98.29
49827;BME280;35715;51.570;6.036;2023-10-09T03:41:25;101768.47;;;15.98;97.98
49827;BME280;35715;51.570;6.036;2023-10-09T03:43:54;101747.63;;;15.98;97.95
49827;BME280;35715;51.570;6.036;2023-10-09T03:46:23;101742.44;;;15.98;97.71
49827;BME280;35715;51.570;6.036;2023-10-09T03:48:57;101745.94;;;15.99;97.78
49827;BME280;35715;51.570;6.036;2023-10-09T03:51:25;101747.63;;;15.98;98.11
49827;BME280;35715;51.570;6.036;2023-10-09T03:53:51;101738.94;;;15.98;97.94
49827;BME280;35715;51.570;6.036;2023-10-09T03:56:19;101743.22;;;15.97;97.89
49827;BME280;35715;51.570;6.036;2023-10-09T03:58:48;101735.31;;;15.95;98.33
49827;BME280;35715;51.570;6.036;2023-10-09T04:01:20;101744.94;;;15.96;97.97
49827;BME280;35715;51.570;6.036;2023-10-09T04:03:50;101738.75;;;15.94;98.18
49827;BME280;35715;51.570;6.036;2023-10-09T04:06:25;101746.56;;;15.94;98.17
49827;BME280;35715;51.570;6.036;2023-10-09T04:08:57;101749.16;;;15.94;98.28
49827;BME280;35715;51.570;6.036;2023-10-09T04:11:24;101755.25;;;15.95;98.01
49827;BME280;35715;51.570;6.036;2023-10-09T04:13:50;101744.84;;;15.95;98.05
49827;BME280;35715;51.570;6.036;2023-10-09T04:16:15;101736.06;;;15.93;97.81
49827;BME280;35715;51.570;6.036;2023-10-09T04:19:03;101729.25;;;15.95;97.74
49827;BME280;35715;51.570;6.036;2023-10-09T04:21:35;101731.84;;;15.95;97.45
49827;BME280;35715;51.570;6.036;2023-10-09T04:24:02;101733.47;;;15.93;97.70
49827;BME280;35715;51.570;6.036;2023-10-09T04:26:45;101733.56;;;15.94;98.09
49827;BME280;35715;51.570;6.036;2023-10-09T04:29:13;101730.94;;;15.94;97.65
49827;BME280;35715;51.570;6.036;2023-10-09T04:32:04;101723.16;;;15.94;97.63
49827;BME280;35715;51.570;6.036;2023-10-09T04:34:33;101715.25;;;15.93;97.57
49827;BME280;35715;51.570;6.036;2023-10-09T04:37:01;101716.03;;;15.92;97.82
49827;BME280;35715;51.570;6.036;2023-10-09T04:39:39;101718.56;;;15.90;97.83
49827;BME280;35715;51.570;6.036;2023-10-09T04:42:11;101716.84;;;15.91;97.66
49827;BME280;35715;51.570;6.036;2023-10-09T04:44:52;101716.03;;;15.92;97.62
49827;BME280;35715;51.570;6.036;2023-10-09T04:47:29;101727.44;;;15.94;97.79
49827;BME280;35715;51.570;6.036;2023-10-09T04:52:36;101764.88;;;15.96;97.66
49827;BME280;35715;51.570;6.036;2023-10-09T04:55:02;101771.88;;;15.97;97.58
49827;BME280;35715;51.570;6.036;2023-10-09T04:57:33;101758.94;;;15.99;97.70
49827;BME280;35715;51.570;6.036;2023-10-09T05:00:11;101766.84;;;16.00;97.52
49827;BME280;35715;51.570;6.036;2023-10-09T05:02:55;101796.41;;;16.01;97.29
49827;BME280;35715;51.570;6.036;2023-10-09T05:05:21;101804.31;;;16.02;97.35
49827;BME280;35715;51.570;6.036;2023-10-09T05:08:10;101797.38;;;16.03;97.14
49827;BME280;35715;51.570;6.036;2023-10-09T05:13:39;101794.78;;;16.03;97.32
49827;BME280;35715;51.570;6.036;2023-10-09T05:18:40;101760.22;;;16.05;97.02
49827;BME280;35715;51.570;6.036;2023-10-09T05:21:06;101770.63;;;16.05;97.28
49827;BME280;35715;51.570;6.036;2023-10-09T05:23:40;101767.03;;;16.03;97.37
49827;BME280;35715;51.570;6.036;2023-10-09T05:26:34;101767.03;;;16.03;97.29
49827;BME280;35715;51.570;6.036;2023-10-09T05:29:19;101761.91;;;16.05;97.11
49827;BME280;35715;51.570;6.036;2023-10-09T05:31:49;101765.44;;;16.05;97.19
49827;BME280;35715;51.570;6.036;2023-10-09T05:34:33;101768.13;;;16.07;97.33
49827;BME280;35715;51.570;6.036;2023-10-09T05:37:05;101781.16;;;16.07;97.27
49827;BME280;35715;51.570;6.036;2023-10-09T05:39:47;101787.34;;;16.09;97.14
49827;BME280;35715;51.570;6.036;2023-10-09T05:42:33;101793.38;;;16.08;97.19
49827;BME280;35715;51.570;6.036;2023-10-09T05:45:03;101795.97;;;16.08;97.03
49827;BME280;35715;51.570;6.036;2023-10-09T05:47:43;101807.38;;;16.10;96.92
49827;BME280;35715;51.570;6.036;2023-10-09T05:50:27;101809.09;;;16.09;96.88
49827;BME280;35715;51.570;6.036;2023-10-09T05:52:56;101813.28;;;16.07;97.26
49827;BME280;35715;51.570;6.036;2023-10-09T05:55:22;101813.47;;;16.10;97.07
49827;BME280;35715;51.570;6.036;2023-10-09T05:57:56;101817.78;;;16.10;97.01
49827;BME280;35715;51.570;6.036;2023-10-09T06:00:40;101810.84;;;16.10;96.94
49827;BME280;35715;51.570;6.036;2023-10-09T06:03:23;101805.75;;;16.12;96.82
49827;BME280;35715;51.570;6.036;2023-10-09T06:05:54;101798.94;;;16.14;97.08
49827;BME280;35715;51.570;6.036;2023-10-09T06:08:26;101802.44;;;16.14;96.99
49827;BME280;35715;51.570;6.036;2023-10-09T06:10:55;101806.00;;;16.17;97.01
49827;BME280;35715;51.570;6.036;2023-10-09T06:13:55;101805.94;;;16.15;96.81
49827;BME280;35715;51.570;6.036;2023-10-09T06:16:33;101819.88;;;16.16;96.97
49827;BME280;35715;51.570;6.036;2023-10-09T06:19:11;101826.06;;;16.18;97.05
49827;BME280;35715;51.570;6.036;2023-10-09T06:21:40;101840.88;;;16.19;96.80
49827;BME280;35715;51.570;6.036;2023-10-09T06:24:06;101829.63;;;16.20;96.76
49827;BME280;35715;51.570;6.036;2023-10-09T06:26:40;101834.94;;;16.21;96.64
49827;BME280;35715;51.570;6.036;2023-10-09T06:29:16;101824.59;;;16.23;97.06
49827;BME280;35715;51.570;6.036;2023-10-09T06:31:55;101825.63;;;16.25;96.65
49827;BME280;35715;51.570;6.036;2023-10-09T06:34:26;101825.63;;;16.25;97.16
49827;BME280;35715;51.570;6.036;2023-10-09T06:36:58;101830.19;;;16.29;96.77
49827;BME280;35715;51.570;6.036;2023-10-09T06:39:28;101833.72;;;16.29;96.67
49827;BME280;35715;51.570;6.036;2023-10-09T06:42:11;101819.88;;;16.30;96.43
49827;BME280;35715;51.570;6.036;2023-10-09T06:44:56;101823.28;;;16.29;96.40
49827;BME280;35715;51.570;6.036;2023-10-09T06:47:21;101831.19;;;16.31;96.67
49827;BME280;35715;51.570;6.036;2023-10-09T06:49:49;101821.84;;;16.35;96.51
49827;BME280;35715;51.570;6.036;2023-10-09T06:52:34;101841.81;;;16.34;97.03
49827;BME280;35715;51.570;6.036;2023-10-09T06:55:19;101843.97;;;16.41;96.88
49827;BME280;35715;51.570;6.036;2023-10-09T06:57:57;101847.56;;;16.43;96.93
49827;BME280;35715;51.570;6.036;2023-10-09T07:00:26;101839.94;;;16.46;96.60
49827;BME280;35715;51.570;6.036;2023-10-09T07:03:10;101815.78;;;16.49;96.55
49827;BME280;35715;51.570;6.036;2023-10-09T07:05:38;101821.06;;;16.50;96.44
49827;BME280;35715;51.570;6.036;2023-10-09T07:08:26;101802.00;;;16.52;96.59
49827;BME280;35715;51.570;6.036;2023-10-09T07:11:02;101811.53;;;16.51;96.52
49827;BME280;35715;51.570;6.036;2023-10-09T07:13:46;101822.94;;;16.53;96.44
49827;BME280;35715;51.570;6.036;2023-10-09T07:16:19;101847.31;;;16.54;96.56
49827;BME280;35715;51.570;6.036;2023-10-09T07:19:03;101831.69;;;16.54;96.68
49827;BME280;35715;51.570;6.036;2023-10-09T07:21:35;101819.53;;;16.54;96.49
49827;BME280;35715;51.570;6.036;2023-10-09T07:24:00;101810.19;;;16.58;96.34
49827;BME280;35715;51.570;6.036;2023-10-09T07:26:39;101810.19;;;16.58;96.36
49827;BME280;35715;51.570;6.036;2023-10-09T07:29:12;101804.97;;;16.58;96.40
49827;BME280;35715;51.570;6.036;2023-10-09T07:31:47;101798.97;;;16.59;96.70
49827;BME280;35715;51.570;6.036;2023-10-09T07:34:12;101792.94;;;16.60;96.47
49827;BME280;35715;51.570;6.036;2023-10-09T07:36:56;101813.88;;;16.61;96.55
49827;BME280;35715;51.570;6.036;2023-10-09T07:39:22;101835.72;;;16.63;96.43
49827;BME280;35715;51.570;6.036;2023-10-09T07:41:48;101831.59;;;16.67;96.85
49827;BME280;35715;51.570;6.036;2023-10-09T07:44:40;101840.47;;;16.71;96.25
49827;BME280;35715;51.570;6.036;2023-10-09T07:47:07;101841.44;;;16.73;96.43
49827;BME280;35715;51.570;6.036;2023-10-09T07:49:50;101856.22;;;16.72;96.50
49827;BME280;35715;51.570;6.036;2023-10-09T07:52:19;101861.41;;;16.72;96.10
49827;BME280;35715;51.570;6.036;2023-10-09T07:54:47;101860.72;;;16.75;96.03
49827;BME280;35715;51.570;6.036;2023-10-09T07:57:18;101864.19;;;16.75;96.22
49827;BME280;35715;51.570;6.036;2023-10-09T07:59:44;101878.22;;;16.77;96.30
49827;BME280;35715;51.570;6.036;2023-10-09T08:02:35;101857.53;;;16.80;95.95
49827;BME280;35715;51.570;6.036;2023-10-09T08:05:01;101855.09;;;16.83;96.09
49827;BME280;35715;51.570;6.036;2023-10-09T08:07:34;101850.91;;;16.85;95.94
49827;BME280;35715;51.570;6.036;2023-10-09T08:10:03;101847.28;;;16.83;95.91
49827;BME280;35715;51.570;6.036;2023-10-09T08:12:38;101841.50;;;16.88;96.13
49827;BME280;35715;51.570;6.036;2023-10-09T08:15:06;101855.72;;;16.93;95.99
49827;BME280;35715;51.570;6.036;2023-10-09T08:20:25;101829.06;;;16.98;95.49
49827;BME280;35715;51.570;6.036;2023-10-09T08:22:51;101841.31;;;16.99;95.89
49827;BME280;35715;51.570;6.036;2023-10-09T08:25:17;101829.06;;;16.98;96.08
49827;BME280;35715;51.570;6.036;2023-10-09T08:27:53;101825.75;;;17.01;95.84
49827;BME280;35715;51.570;6.036;2023-10-09T08:32:51;101789.50;;;17.06;95.79
49827;BME280;35715;51.570;6.036;2023-10-09T08:35:35;101782.81;;;17.11;95.99
49827;BME280;35715;51.570;6.036;2023-10-09T08:38:12;101776.25;;;17.17;95.91
49827;BME280;35715;51.570;6.036;2023-10-09T08:40:38;101779.84;;;17.19;95.65
49827;BME280;35715;51.570;6.036;2023-10-09T08:43:14;101785.13;;;17.21;95.64
49827;BME280;35715;51.570;6.036;2023-10-09T08:45:46;101789.81;;;17.27;95.46
49827;BME280;35715;51.570;6.036;2023-10-09T08:48:12;101792.50;;;17.28;95.20
49827;BME280;35715;51.570;6.036;2023-10-09T08:50:41;101796.34;;;17.35;95.02
49827;BME280;35715;51.570;6.036;2023-10-09T08:53:12;101816.91;;;17.45;94.59
49827;BME280;35715;51.570;6.036;2023-10-09T08:55:38;101811.22;;;17.52;94.38
49827;BME280;35715;51.570;6.036;2023-10-09T08:58:04;101819.72;;;17.65;94.34
49827;BME280;35715;51.570;6.036;2023-10-09T09:00:39;101825.50;;;17.76;93.78
49827;BME280;35715;51.570;6.036;2023-10-09T09:03:08;101834.00;;;17.88;93.53
49827;BME280;35715;51.570;6.036;2023-10-09T09:05:33;101841.56;;;17.98;93.07
49827;BME280;35715;51.570;6.036;2023-10-09T09:08:01;101828.00;;;18.05;92.70
49827;BME280;35715;51.570;6.036;2023-10-09T09:10:27;101828.00;;;18.05;91.73
49827;BME280;35715;51.570;6.036;2023-10-09T09:13:00;101836.34;;;18.15;91.85
49827;BME280;35715;51.570;6.036;2023-10-09T09:15:29;101829.66;;;18.20;91.50
49827;BME280;35715;51.570;6.036;2023-10-09T09:18:07;101855.03;;;18.22;90.75
49827;BME280;35715;51.570;6.036;2023-10-09T09:20:34;101848.56;;;18.32;90.96
49827;BME280;35715;51.570;6.036;2023-10-09T09:23:05;101857.06;;;18.44;90.74
49827;BME280;35715;51.570;6.036;2023-10-09T09:25:46;101854.34;;;18.59;90.37
49827;BME280;35715;51.570;6.036;2023-10-09T09:28:24;101862.06;;;18.74;89.23
49827;BME280;35715;51.570;6.036;2023-10-09T09:30:51;101871.16;;;18.99;89.16
49827;BME280;35715;51.570;6.036;2023-10-09T09:33:18;101859.50;;;19.10;88.02
49827;BME280;35715;51.570;6.036;2023-10-09T09:36:01;101856.94;;;19.12;88.40
49827;BME280;35715;51.570;6.036;2023-10-09T09:38:28;101847.25;;;19.09;88.02
49827;BME280;35715;51.570;6.036;2023-10-09T09:40:55;101854.19;;;19.09;87.46
49827;BME280;35715;51.570;6.036;2023-10-09T09:43:21;101861.38;;;19.13;87.11
49827;BME280;35715;51.570;6.036;2023-10-09T09:45:47;101868.28;;;19.29;87.51
49827;BME280;35715;51.570;6.036;2023-10-09T09:48:14;101868.16;;;19.45;86.84
49827;BME280;35715;51.570;6.036;2023-10-09T09:50:41;101873.50;;;19.66;86.76
49827;BME280;35715;51.570;6.036;2023-10-09T09:53:10;101876.75;;;19.79;84.34
49827;BME280;35715;51.570;6.036;2023-10-09T09:55:37;101870.56;;;19.96;83.95
49827;BME280;35715;51.570;6.036;2023-10-09T09:58:06;101862.03;;;20.20;83.82
49827;BME280;35715;51.570;6.036;2023-10-09T10:00:43;101870.38;;;20.31;82.30
49827;BME280;35715;51.570;6.036;2023-10-09T10:03:14;101871.50;;;20.37;81.13
49827;BME280;35715;51.570;6.036;2023-10-09T10:05:42;101865.78;;;20.46;82.38
49827;BME280;35715;51.570;6.036;2023-10-09T10:08:08;101871.16;;;20.49;82.51
49827;BME280;35715;51.570;6.036;2023-10-09T10:10:39;101879.09;;;20.51;81.77
49827;BME280;35715;51.570;6.036;2023-10-09T10:13:13;101875.78;;;20.55;81.40
49827;BME280;35715;51.570;6.036;2023-10-09T10:18:21;101879.28;;;20.75;80.85
49827;BME280;35715;51.570;6.036;2023-10-09T10:23:36;101881.47;;;21.06;77.27
49827;BME280;35715;51.570;6.036;2023-10-09T10:26:17;101884.78;;;21.23;77.87
49827;BME280;35715;51.570;6.036;2023-10-09T10:28:47;101885.84;;;21.28;77.84
49827;BME280;35715;51.570;6.036;2023-10-09T10:34:18;101879.59;;;21.25;77.54
49827;BME280;35715;51.570;6.036;2023-10-09T10:36:52;101872.50;;;21.22;77.76
49827;BME280;35715;51.570;6.036;2023-10-09T10:39:23;101874.72;;;21.34;78.57
49827;BME280;35715;51.570;6.036;2023-10-09T10:42:07;101864.25;;;21.57;77.58
49827;BME280;35715;51.570;6.036;2023-10-09T10:44:34;101874.50;;;21.96;77.21
49827;BME280;35715;51.570;6.036;2023-10-09T10:47:02;101878.94;;;22.21;74.92
49827;BME280;35715;51.570;6.036;2023-10-09T10:49:30;101870.56;;;22.31;75.06
49827;BME280;35715;51.570;6.036;2023-10-09T10:52:02;101878.00;;;22.43;74.18
49827;BME280;35715;51.570;6.036;2023-10-09T10:54:40;101875.47;;;22.46;69.96
49827;BME280;35715;51.570;6.036;2023-10-09T10:57:21;101873.47;;;22.65;73.17
49827;BME280;35715;51.570;6.036;2023-10-09T11:00:09;101865.78;;;22.70;71.62
49827;BME280;35715;51.570;6.036;2023-10-09T11:02:43;101866.66;;;22.70;71.90
49827;BME280;35715;51.570;6.036;2023-10-09T11:05:08;101870.34;;;22.75;72.07
49827;BME280;35715;51.570;6.036;2023-10-09T11:07:39;101865.81;;;22.97;70.47
49827;BME280;35715;51.570;6.036;2023-10-09T11:10:06;101865.53;;;23.15;69.98
49827;BME280;35715;51.570;6.036;2023-10-09T11:12:32;101863.84;;;23.17;68.59
49827;BME280;35715;51.570;6.036;2023-10-09T11:15:11;101875.75;;;23.33;69.20
49827;BME280;35715;51.570;6.036;2023-10-09T11:18:07;101874.00;;;23.61;68.15
49827;BME280;35715;51.570;6.036;2023-10-09T11:20:45;101877.94;;;24.04;65.67
49827;BME280;35715;51.570;6.036;2023-10-09T11:23:29;101885.63;;;23.96;66.12
49827;BME280;35715;51.570;6.036;2023-10-09T11:26:02;101878.13;;;23.81;67.14
49827;BME280;35715;51.570;6.036;2023-10-09T11:29:07;101870.41;;;23.87;67.88
49827;BME280;35715;51.570;6.036;2023-10-09T11:34:28;101866.53;;;24.69;63.79
49827;BME280;35715;51.570;6.036;2023-10-09T11:36:55;101868.28;;;24.68;65.55
49827;BME280;35715;51.570;6.036;2023-10-09T11:39:30;101859.81;;;24.80;65.28
49827;BME280;35715;51.570;6.036;2023-10-09T11:42:15;101856.44;;;24.54;64.11
49827;BME280;35715;51.570;6.036;2023-10-09T11:45:02;101860.44;;;24.06;66.75
49827;BME280;35715;51.570;6.036;2023-10-09T11:47:44;101861.16;;;23.71;67.37
49827;BME280;35715;51.570;6.036;2023-10-09T11:50:19;101853.22;;;23.41;67.66
49827;BME280;35715;51.570;6.036;2023-10-09T11:52:55;101850.75;;;23.18;68.48
49827;BME280;35715;51.570;6.036;2023-10-09T11:55:39;101851.06;;;23.02;68.97
49827;BME280;35715;51.570;6.036;2023-10-09T11:58:05;101843.50;;;22.85;69.53
49827;BME280;35715;51.570;6.036;2023-10-09T12:00:31;101843.03;;;22.72;70.23
49827;BME280;35715;51.570;6.036;2023-10-09T12:03:09;101843.56;;;22.61;70.91
49827;BME280;35715;51.570;6.036;2023-10-09T12:05:34;101838.75;;;22.49;70.77
49827;BME280;35715;51.570;6.036;2023-10-09T12:08:00;101856.84;;;22.40;71.10
49827;BME280;35715;51.570;6.036;2023-10-09T12:10:26;101856.38;;;22.28;71.43
49827;BME280;35715;51.570;6.036;2023-10-09T12:12:52;101867.63;;;22.24;71.60
49827;BME280;35715;51.570;6.036;2023-10-09T12:15:17;101868.22;;;22.15;71.48
49827;BME280;35715;51.570;6.036;2023-10-09T12:17:44;101873.59;;;22.18;71.98
49827;BME280;35715;51.570;6.036;2023-10-09T12:20:12;101867.28;;;22.14;71.47
49827;BME280;35715;51.570;6.036;2023-10-09T12:22:55;101862.47;;;22.03;72.00
49827;BME280;35715;51.570;6.036;2023-10-09T12:25:22;101849.22;;;22.00;71.98
49827;BME280;35715;51.570;6.036;2023-10-09T12:27:50;101870.34;;;22.03;72.37
49827;BME280;35715;51.570;6.036;2023-10-09T12:30:19;101855.41;;;22.00;72.80
49827;BME280;35715;51.570;6.036;2023-10-09T12:32:51;101849.13;;;21.96;72.30
49827;BME280;35715;51.570;6.036;2023-10-09T12:35:17;101854.38;;;21.96;72.88
49827;BME280;35715;51.570;6.036;2023-10-09T12:37:42;101852.66;;;21.97;73.63
49827;BME280;35715;51.570;6.036;2023-10-09T12:40:08;101850.97;;;21.99;73.58
49827;BME280;35715;51.570;6.036;2023-10-09T12:42:35;101843.03;;;21.97;73.62
49827;BME280;35715;51.570;6.036;2023-10-09T12:45:01;101843.81;;;21.95;73.82
49827;BME280;35715;51.570;6.036;2023-10-09T12:47:33;101851.69;;;21.95;74.37
49827;BME280;35715;51.570;6.036;2023-10-09T12:49:58;101837.59;;;21.93;74.42
49827;BME280;35715;51.570;6.036;2023-10-09T12:52:24;101831.31;;;21.88;74.41
49827;BME280;35715;51.570;6.036;2023-10-09T12:54:54;101829.59;;;21.90;74.74
49827;BME280;35715;51.570;6.036;2023-10-09T12:57:20;101836.09;;;22.00;74.82
49827;BME280;35715;51.570;6.036;2023-10-09T12:59:45;101826.72;;;22.06;74.61
49827;BME280;35715;51.570;6.036;2023-10-09T13:02:16;101826.81;;;22.09;74.63
49827;BME280;35715;51.570;6.036;2023-10-09T13:04:56;101815.63;;;22.15;74.84
49827;BME280;35715;51.570;6.036;2023-10-09T13:07:22;101812.47;;;22.25;74.83
49827;BME280;35715;51.570;6.036;2023-10-09T13:09:47;101811.88;;;22.32;74.11
49827;BME280;35715;51.570;6.036;2023-10-09T13:12:32;101820.72;;;22.35;74.29
49827;BME280;35715;51.570;6.036;2023-10-09T13:14:58;101821.72;;;22.38;74.47
49827;BME280;35715;51.570;6.036;2023-10-09T13:17:23;101823.59;;;22.41;74.69
49827;BME280;35715;51.570;6.036;2023-10-09T13:19:52;101816.53;;;22.40;74.78
49827;BME280;35715;51.570;6.036;2023-10-09T13:22:17;101819.16;;;22.40;74.71
49827;BME280;35715;51.570;6.036;2023-10-09T13:24:42;101813.78;;;22.37;74.83
49827;BME280;35715;51.570;6.036;2023-10-09T13:27:08;101819.81;;;22.34;74.22
49827;BME280;35715;51.570;6.036;2023-10-09T13:29:35;101817.19;;;22.34;74.38
49827;BME280;35715;51.570;6.036;2023-10-09T13:32:04;101817.47;;;22.42;74.53
49827;BME280;35715;51.570;6.036;2023-10-09T13:34:38;101824.56;;;22.44;73.78
49827;BME280;35715;51.570;6.036;2023-10-09T13:37:09;101823.03;;;22.51;73.93
49827;BME280;35715;51.570;6.036;2023-10-09T13:39:38;101823.19;;;22.56;73.60